createdAt,value
2022-12-18T00:01:21.512Z,9.70
2022-12-18T00:03:49.195Z,11.82
2022-12-18T00:06:16.559Z,10.20
2022-12-18T00:08:44.016Z,9.88
2022-12-18T00:11:13.393Z,10.15
2022-12-18T00:13:40.658Z,8.95
2022-12-18T00:16:11.785Z,10.18
2022-12-18T00:18:38.652Z,9.43
2022-12-18T00:21:07.560Z,10.27
2022-12-18T00:23:35.985Z,9.57
2022-12-18T00:26:04.819Z,8.35
2022-12-18T00:28:31.989Z,9.32
2022-12-18T00:31:01.747Z,8.90
2022-12-18T00:33:30.294Z,8.48
2022-12-18T00:36:01.587Z,10.15
2022-12-18T00:38:28.253Z,10.98
2022-12-18T00:40:54.755Z,11.63
2022-12-18T00:43:21.409Z,11.50
2022-12-18T00:45:47.975Z,10.63
2022-12-18T00:48:14.608Z,10.57
2022-12-18T00:50:42.771Z,10.88
2022-12-18T00:53:09.561Z,11.23
2022-12-18T00:55:36.153Z,11.20
2022-12-18T00:58:02.910Z,13.10
2022-12-18T01:00:29.469Z,11.05
2022-12-18T01:02:56.125Z,11.63
2022-12-18T01:05:23.046Z,9.90
2022-12-18T01:07:50.988Z,10.98
2022-12-18T01:10:17.833Z,12.65
2022-12-18T01:12:44.539Z,10.95
2022-12-18T01:15:13.392Z,10.75
2022-12-18T01:17:40.017Z,10.18
2022-12-18T01:20:08.249Z,12.88
2022-12-18T01:22:34.870Z,12.95
2022-12-18T01:25:03.706Z,12.23
2022-12-18T01:27:31.986Z,11.05
2022-12-18T01:29:58.498Z,10.65
2022-12-18T01:32:25.918Z,10.88
2022-12-18T01:34:52.614Z,10.65
2022-12-18T01:37:19.985Z,10.98
2022-12-18T01:39:46.515Z,11.52
2022-12-18T01:42:16.296Z,9.18
2022-12-18T01:44:56.176Z,11.30
2022-12-18T01:47:26.404Z,10.98
2022-12-18T01:49:53.944Z,10.00
2022-12-18T01:52:22.679Z,9.07
2022-12-18T01:54:51.565Z,9.70
2022-12-18T01:57:20.608Z,12.43
2022-12-18T01:59:52.694Z,10.52
2022-12-18T02:02:20.237Z,9.65
2022-12-18T02:04:49.562Z,9.43
2022-12-18T02:07:25.825Z,9.82
2022-12-18T02:09:59.287Z,9.80
2022-12-18T02:12:35.724Z,8.38
2022-12-18T02:15:08.997Z,9.43
2022-12-18T02:17:43.771Z,8.15
2022-12-18T02:20:18.124Z,8.98
2022-12-18T02:22:56.776Z,10.00
2022-12-18T02:25:41.013Z,8.52
2022-12-18T02:28:13.031Z,9.20
2022-12-18T02:30:42.112Z,8.93
2022-12-18T02:33:11.973Z,8.23
2022-12-18T02:35:41.605Z,8.90
2022-12-18T02:38:09.248Z,8.98
2022-12-18T02:40:39.443Z,8.50
2022-12-18T02:43:10.753Z,8.70
2022-12-18T02:48:14.359Z,7.70
2022-12-18T02:50:51.253Z,8.27
2022-12-18T02:53:27.209Z,9.10
2022-12-18T02:55:59.707Z,8.80
2022-12-18T02:58:35.181Z,8.07
2022-12-18T03:01:15.051Z,10.90
2022-12-18T03:03:47.679Z,10.68
2022-12-18T03:06:21.612Z,10.23
2022-12-18T03:08:53.941Z,10.13
2022-12-18T03:11:21.243Z,10.82
2022-12-18T03:13:57.132Z,11.23
2022-12-18T03:16:27.637Z,10.55
2022-12-18T03:18:58.373Z,10.38
2022-12-18T03:21:29.816Z,10.90
2022-12-18T03:23:57.656Z,10.45
2022-12-18T03:26:29.142Z,10.13
2022-12-18T03:29:05.619Z,8.60
2022-12-18T03:31:33.676Z,8.05
2022-12-18T03:34:05.339Z,7.93
2022-12-18T03:36:40.446Z,7.13
2022-12-18T03:39:07.597Z,7.80
2022-12-18T03:41:44.815Z,9.57
2022-12-18T03:44:30.001Z,10.05
2022-12-18T03:47:04.629Z,8.88
2022-12-18T03:49:36.373Z,8.57
2022-12-18T03:52:08.118Z,8.82
2022-12-18T03:54:36.289Z,9.73
2022-12-18T03:57:15.397Z,8.45
2022-12-18T03:59:44.962Z,9.75
2022-12-18T04:02:16.824Z,8.73
2022-12-18T04:04:45.144Z,8.63
2022-12-18T04:07:14.218Z,7.53
2022-12-18T04:09:46.400Z,8.05
2022-12-18T04:12:14.072Z,8.95
2022-12-18T04:14:40.837Z,7.75
2022-12-18T04:17:10.711Z,6.72
2022-12-18T04:19:37.424Z,8.35
2022-12-18T04:22:04.240Z,9.07
2022-12-18T04:24:38.089Z,8.98
2022-12-18T04:27:15.154Z,7.88
2022-12-18T04:29:46.757Z,7.60
2022-12-18T04:32:16.094Z,7.22
2022-12-18T04:34:44.321Z,8.18
2022-12-18T04:37:11.013Z,7.93
2022-12-18T04:39:37.641Z,6.88
2022-12-18T04:42:10.258Z,8.38
2022-12-18T04:44:37.141Z,7.35
2022-12-18T04:47:03.987Z,8.60
2022-12-18T04:49:32.037Z,7.38
2022-12-18T04:51:58.578Z,7.35
2022-12-18T04:54:25.112Z,7.40
2022-12-18T04:56:51.647Z,7.30
2022-12-18T04:59:18.256Z,7.60
2022-12-18T05:01:44.767Z,7.55
2022-12-18T05:04:11.563Z,7.63
2022-12-18T05:06:39.451Z,7.45
2022-12-18T05:09:06.154Z,6.35
2022-12-18T05:11:32.663Z,6.63
2022-12-18T05:13:59.332Z,8.07
2022-12-18T05:16:25.941Z,7.60
2022-12-18T05:18:52.557Z,8.32
2022-12-18T05:21:19.119Z,6.88
2022-12-18T05:23:47.072Z,6.40
2022-12-18T05:26:17.286Z,6.60
2022-12-18T05:28:44.764Z,7.05
2022-12-18T05:31:11.288Z,7.35
2022-12-18T05:33:38.910Z,7.07
2022-12-18T05:36:08.068Z,6.97
2022-12-18T05:38:36.636Z,7.07
2022-12-18T05:41:05.734Z,5.90
2022-12-18T05:43:34.328Z,6.78
2022-12-18T05:46:05.212Z,6.03
2022-12-18T05:48:31.775Z,6.60
2022-12-18T05:51:04.534Z,8.00
2022-12-18T05:53:31.095Z,6.65
2022-12-18T05:56:01.148Z,6.70
2022-12-18T05:58:29.170Z,7.78
2022-12-18T06:00:55.669Z,7.20
2022-12-18T06:03:22.253Z,6.32
2022-12-18T06:05:49.167Z,7.30
2022-12-18T06:08:15.793Z,7.53
2022-12-18T06:10:42.840Z,6.78
2022-12-18T06:13:09.730Z,6.55
2022-12-18T06:15:38.737Z,6.97
2022-12-18T06:18:05.419Z,6.63
2022-12-18T06:20:33.609Z,7.70
2022-12-18T06:23:00.801Z,6.85
2022-12-18T06:25:27.316Z,7.47
2022-12-18T06:27:54.009Z,6.72
2022-12-18T06:30:20.721Z,6.88
2022-12-18T06:32:56.108Z,7.10
2022-12-18T06:35:24.033Z,8.10
2022-12-18T06:37:50.923Z,6.85
2022-12-18T06:40:17.869Z,5.68
2022-12-18T06:42:44.399Z,6.75
2022-12-18T06:45:11.437Z,5.90
2022-12-18T06:47:37.914Z,8.07
2022-12-18T06:50:07.005Z,8.35
2022-12-18T06:52:33.510Z,7.53
2022-12-18T06:55:00.172Z,7.07
2022-12-18T06:57:26.692Z,7.55
2022-12-18T06:59:53.227Z,6.70
2022-12-18T07:02:19.872Z,6.25
2022-12-18T07:04:46.568Z,6.15
2022-12-18T07:07:14.492Z,6.55
2022-12-18T07:09:41.052Z,6.15
2022-12-18T07:12:07.609Z,7.18
2022-12-18T07:14:34.419Z,6.53
2022-12-18T07:17:01.128Z,6.45
2022-12-18T07:19:28.199Z,6.68
2022-12-18T07:21:55.850Z,7.22
2022-12-18T07:24:23.747Z,6.93
2022-12-18T07:26:50.329Z,9.52
2022-12-18T07:29:16.884Z,9.13
2022-12-18T07:31:43.558Z,12.27
2022-12-18T07:34:11.607Z,8.57
2022-12-18T07:36:38.310Z,7.88
2022-12-18T07:39:04.935Z,7.03
2022-12-18T07:41:32.830Z,8.68
2022-12-18T07:44:10.125Z,7.90
2022-12-18T07:46:36.743Z,7.70
2022-12-18T07:49:03.301Z,6.63
2022-12-18T07:51:32.714Z,7.15
2022-12-18T07:53:59.260Z,6.10
2022-12-18T07:56:28.545Z,6.88
2022-12-18T07:58:56.864Z,6.50
2022-12-18T08:01:23.636Z,6.93
2022-12-18T08:03:52.513Z,7.72
2022-12-18T08:06:19.565Z,7.13
2022-12-18T08:08:49.201Z,10.20
2022-12-18T08:11:16.513Z,12.77
2022-12-18T08:13:43.393Z,11.45
2022-12-18T08:16:11.433Z,9.25
2022-12-18T08:18:38.301Z,8.30
2022-12-18T08:21:11.585Z,7.95
2022-12-18T08:23:42.631Z,7.88
2022-12-18T08:26:10.121Z,7.53
2022-12-18T08:28:36.644Z,8.27
2022-12-18T08:31:03.495Z,7.32
2022-12-18T08:33:31.672Z,8.73
2022-12-18T08:36:00.202Z,12.25
2022-12-18T08:38:26.996Z,10.35
2022-12-18T08:40:59.381Z,9.55
2022-12-18T08:43:26.001Z,7.47
2022-12-18T08:45:52.582Z,8.63
2022-12-18T08:48:22.118Z,7.97
2022-12-18T08:50:56.333Z,8.35
2022-12-18T08:53:22.947Z,8.52
2022-12-18T08:55:50.629Z,10.75
2022-12-18T08:58:17.286Z,14.35
2022-12-18T09:00:43.797Z,15.05
2022-12-18T09:03:12.744Z,15.15
2022-12-18T09:05:39.317Z,12.63
2022-12-18T09:08:07.516Z,13.25
2022-12-18T09:10:38.795Z,12.85
2022-12-18T09:13:08.321Z,6.93
2022-12-18T09:15:34.800Z,7.07
2022-12-18T09:18:01.375Z,6.85
2022-12-18T09:20:27.906Z,7.78
2022-12-18T09:22:54.447Z,7.70
2022-12-18T09:25:22.331Z,8.13
2022-12-18T09:27:50.076Z,7.20
2022-12-18T09:30:16.669Z,8.00
2022-12-18T09:32:43.261Z,6.90
2022-12-18T09:35:09.995Z,7.32
2022-12-18T09:37:36.539Z,6.88
2022-12-18T09:40:03.643Z,7.22
2022-12-18T09:42:31.794Z,7.63
2022-12-18T09:45:00.456Z,8.88
2022-12-18T09:47:31.500Z,24.52
2022-12-18T09:50:01.947Z,23.63
2022-12-18T09:52:34.930Z,19.60
2022-12-18T09:55:06.922Z,23.73
2022-12-18T10:00:12.429Z,21.33
2022-12-18T10:02:39.460Z,10.23
2022-12-18T10:05:08.302Z,23.50
2022-12-18T10:07:54.915Z,13.60
2022-12-18T10:10:32.893Z,13.13
2022-12-18T10:13:16.402Z,13.00
2022-12-18T10:15:56.578Z,10.95
2022-12-18T10:18:35.884Z,13.38
2022-12-18T10:21:10.740Z,10.90
2022-12-18T10:23:48.203Z,11.65
2022-12-18T10:26:15.869Z,11.20
2022-12-18T10:28:45.781Z,9.52
2022-12-18T10:31:16.893Z,9.02
2022-12-18T10:33:43.667Z,10.73
2022-12-18T10:36:10.490Z,9.50
2022-12-18T10:38:37.683Z,9.52
2022-12-18T10:41:06.904Z,9.60
2022-12-18T10:43:35.417Z,10.27
2022-12-18T10:46:15.129Z,9.15
2022-12-18T10:48:50.902Z,9.15
2022-12-18T10:51:22.427Z,9.05
2022-12-18T10:53:56.438Z,8.05
2022-12-18T10:56:24.670Z,9.60
2022-12-18T10:58:58.480Z,8.40
2022-12-18T11:01:26.605Z,8.32
2022-12-18T11:04:02.813Z,9.23
2022-12-18T11:06:30.330Z,9.88
2022-12-18T11:09:01.644Z,9.55
2022-12-18T11:11:29.580Z,9.55
2022-12-18T11:14:03.194Z,15.70
2022-12-18T11:16:35.617Z,12.27
2022-12-18T11:21:47.903Z,10.98
2022-12-18T11:24:21.803Z,9.82
2022-12-18T11:26:52.668Z,8.98
2022-12-18T11:29:28.133Z,9.38
2022-12-18T11:32:32.450Z,10.13
2022-12-18T11:35:05.391Z,10.02
2022-12-18T11:37:33.695Z,12.27
2022-12-18T11:40:07.368Z,9.68
2022-12-18T11:42:39.288Z,10.40
2022-12-18T11:45:24.284Z,9.45
2022-12-18T11:47:58.653Z,10.50
2022-12-18T11:50:27.666Z,10.73
2022-12-18T11:52:58.210Z,10.95
2022-12-18T11:55:38.012Z,10.68
2022-12-18T11:58:13.576Z,10.65
2022-12-18T12:00:47.342Z,10.75
2022-12-18T12:03:28.406Z,11.35
2022-12-18T12:06:09.007Z,10.63
2022-12-18T12:08:48.438Z,11.68
2022-12-18T12:11:21.915Z,11.25
2022-12-18T12:14:00.381Z,10.80
2022-12-18T12:16:33.696Z,10.90
2022-12-18T12:19:16.499Z,10.80
2022-12-18T12:21:48.094Z,11.65
2022-12-18T12:24:31.374Z,11.02
2022-12-18T12:27:09.431Z,10.40
2022-12-18T12:29:47.383Z,10.25
2022-12-18T12:32:27.278Z,11.63
2022-12-18T12:35:12.099Z,12.43
2022-12-18T12:37:50.807Z,12.35
2022-12-18T12:40:51.152Z,11.65
2022-12-18T12:43:26.119Z,12.15
2022-12-18T12:45:56.628Z,10.95
2022-12-18T12:48:36.772Z,31.70
2022-12-18T12:51:13.349Z,11.45
2022-12-18T12:53:41.451Z,14.73
2022-12-18T12:56:12.323Z,14.63
2022-12-18T12:58:46.695Z,12.73
2022-12-18T13:01:23.537Z,18.65
2022-12-18T13:03:59.002Z,13.48
2022-12-18T13:06:54.138Z,11.77
2022-12-18T13:09:22.561Z,11.48
2022-12-18T13:11:52.579Z,12.13
2022-12-18T13:14:25.618Z,12.75
2022-12-18T13:16:52.336Z,11.70
2022-12-18T13:19:27.304Z,13.43
2022-12-18T13:21:56.800Z,12.43
2022-12-18T13:24:29.091Z,11.45
2022-12-18T13:26:56.290Z,12.32
2022-12-18T13:29:43.186Z,13.68
2022-12-18T13:32:21.565Z,12.15
2022-12-18T13:34:50.247Z,13.35
2022-12-18T13:37:43.752Z,13.38
2022-12-18T13:40:58.463Z,15.18
2022-12-18T13:43:29.566Z,13.23
2022-12-18T13:46:17.859Z,13.27
2022-12-18T13:48:51.930Z,12.02
2022-12-18T13:51:20.994Z,12.30
2022-12-18T13:53:52.798Z,12.68
2022-12-18T13:56:23.605Z,13.57
2022-12-18T13:59:12.883Z,13.50
2022-12-18T14:01:44.122Z,14.00
2022-12-18T14:04:12.499Z,13.10
2022-12-18T14:06:39.302Z,13.85
2022-12-18T14:09:11.476Z,17.45
2022-12-18T14:11:39.672Z,19.70
2022-12-18T14:14:07.829Z,14.30
2022-12-18T14:16:35.391Z,12.65
2022-12-18T14:19:13.844Z,44.67
2022-12-18T14:21:47.805Z,15.48
2022-12-18T14:24:19.769Z,13.40
2022-12-18T14:26:47.442Z,26.90
2022-12-18T14:29:26.697Z,22.52
2022-12-18T14:32:11.798Z,13.20
2022-12-18T14:34:41.767Z,26.10
2022-12-18T14:37:11.165Z,17.13
2022-12-18T14:39:39.204Z,17.58
2022-12-18T14:42:05.765Z,15.45
2022-12-18T14:44:44.302Z,14.52
2022-12-18T14:47:18.671Z,28.15
2022-12-18T14:49:45.628Z,14.25
2022-12-18T14:52:23.594Z,16.38
2022-12-18T14:54:52.726Z,15.55
2022-12-18T14:57:23.535Z,17.48
2022-12-18T14:59:50.760Z,19.17
2022-12-18T15:02:23.271Z,16.13
2022-12-18T15:05:01.585Z,14.93
2022-12-18T15:07:28.244Z,13.55
2022-12-18T15:10:10.934Z,14.32
2022-12-18T15:12:40.867Z,15.00
2022-12-18T15:15:40.657Z,13.90
2022-12-18T15:18:14.021Z,15.45
2022-12-18T15:20:42.708Z,14.50
2022-12-18T15:23:15.682Z,14.27
2022-12-18T15:25:43.732Z,14.35
2022-12-18T15:28:20.399Z,15.13
2022-12-18T15:31:00.152Z,17.13
2022-12-18T15:33:30.629Z,14.98
2022-12-18T15:35:58.866Z,13.45
2022-12-18T15:38:25.405Z,14.25
2022-12-18T15:40:53.648Z,15.95
2022-12-18T15:43:22.264Z,16.17
2022-12-18T15:45:48.796Z,16.77
2022-12-18T15:48:21.056Z,16.25
2022-12-18T15:50:47.727Z,15.63
2022-12-18T15:53:14.311Z,16.15
2022-12-18T15:55:40.857Z,14.57
2022-12-18T15:58:11.269Z,24.10
2022-12-18T16:00:40.859Z,17.27
2022-12-18T16:03:07.583Z,16.52
2022-12-18T16:05:34.428Z,16.70
2022-12-18T16:08:00.970Z,16.20
2022-12-18T16:10:28.060Z,16.02
2022-12-18T16:12:54.598Z,16.52
2022-12-18T16:15:24.942Z,16.30
2022-12-18T16:17:54.571Z,17.73
2022-12-18T16:20:22.447Z,15.73
2022-12-18T16:22:49.685Z,18.10
2022-12-18T16:25:19.513Z,20.67
2022-12-18T16:27:46.147Z,27.33
2022-12-18T16:30:15.923Z,26.40
2022-12-18T16:32:44.238Z,19.65
2022-12-18T16:35:12.349Z,16.92
2022-12-18T16:37:39.721Z,17.73
2022-12-18T16:40:07.566Z,15.77
2022-12-18T16:42:34.301Z,16.73
2022-12-18T16:45:00.828Z,16.98
2022-12-18T16:47:27.764Z,16.77
2022-12-18T16:49:55.733Z,18.73
2022-12-18T16:52:22.779Z,17.52
2022-12-18T16:54:49.320Z,16.92
2022-12-18T16:57:18.822Z,18.35
2022-12-18T16:59:48.370Z,16.08
2022-12-18T17:02:19.110Z,18.30
2022-12-18T17:04:47.656Z,17.77
2022-12-18T17:07:16.073Z,17.48
2022-12-18T17:09:42.893Z,17.10
2022-12-18T17:12:09.681Z,18.95
2022-12-18T17:14:36.560Z,18.20
2022-12-18T17:19:50.212Z,18.70
2022-12-18T17:22:18.459Z,16.70
2022-12-18T17:24:46.294Z,15.15
2022-12-18T17:27:12.849Z,17.60
2022-12-18T17:29:45.340Z,16.55
2022-12-18T17:32:15.297Z,18.15
2022-12-18T17:34:41.925Z,18.05
2022-12-18T17:37:09.071Z,16.55
2022-12-18T17:39:37.287Z,18.05
2022-12-18T17:42:06.152Z,17.50
2022-12-18T17:44:35.376Z,18.63
2022-12-18T17:47:02.261Z,18.13
2022-12-18T17:49:29.201Z,15.77
2022-12-18T17:51:59.043Z,18.17
2022-12-18T17:54:28.831Z,17.83
2022-12-18T17:56:56.968Z,17.23
2022-12-18T17:59:23.735Z,18.63
2022-12-18T18:01:50.444Z,16.75
2022-12-18T18:04:17.722Z,15.95
2022-12-18T18:06:46.869Z,17.42
2022-12-18T18:09:16.259Z,19.00
2022-12-18T18:11:43.807Z,23.55
2022-12-18T18:14:17.684Z,20.35
2022-12-18T18:16:47.105Z,16.42
2022-12-18T18:19:17.285Z,18.25
2022-12-18T18:21:46.455Z,17.70
2022-12-18T18:24:15.286Z,18.02
2022-12-18T18:26:42.391Z,19.60
2022-12-18T18:29:30.623Z,19.02
2022-12-18T18:32:01.007Z,17.30
2022-12-18T18:34:34.612Z,17.17
2022-12-18T18:37:03.710Z,18.02
2022-12-18T18:39:30.393Z,17.10
2022-12-18T18:41:57.418Z,18.70
2022-12-18T18:44:25.747Z,18.30
2022-12-18T18:46:55.907Z,18.15
2022-12-18T18:49:27.151Z,17.77
2022-12-18T18:51:54.747Z,18.20
2022-12-18T18:54:21.347Z,16.02
2022-12-18T18:57:19.856Z,17.92
2022-12-18T18:59:35.665Z,17.58
2022-12-18T19:02:06.449Z,17.05
2022-12-18T19:04:34.180Z,18.95
2022-12-18T19:07:01.148Z,16.92
2022-12-18T19:09:28.726Z,17.40
2022-12-18T19:11:56.026Z,17.90
2022-12-18T19:14:23.712Z,16.60
2022-12-18T19:16:50.597Z,17.67
2022-12-18T19:19:18.736Z,17.70
2022-12-18T19:21:47.109Z,17.60
2022-12-18T19:24:13.705Z,17.95
2022-12-18T19:26:40.207Z,16.33
2022-12-18T19:29:10.786Z,17.50
2022-12-18T19:31:37.866Z,16.75
2022-12-18T19:34:05.497Z,18.95
2022-12-18T19:36:35.281Z,17.02
2022-12-18T19:39:06.940Z,17.65
2022-12-18T19:41:33.986Z,18.95
2022-12-18T19:44:07.564Z,16.60
2022-12-18T19:46:35.653Z,15.82
2022-12-18T19:49:03.028Z,17.92
2022-12-18T19:51:31.328Z,16.40
2022-12-18T19:54:01.724Z,17.15
2022-12-18T19:56:31.422Z,18.00
2022-12-18T19:58:58.331Z,17.42
2022-12-18T20:01:26.743Z,16.98
2022-12-18T20:03:55.257Z,15.88
2022-12-18T20:06:26.640Z,16.30
2022-12-18T20:09:00.438Z,17.63
2022-12-18T20:11:29.498Z,17.15
2022-12-18T20:13:56.496Z,18.10
2022-12-18T20:16:23.255Z,17.70
2022-12-18T20:18:49.930Z,18.15
2022-12-18T20:21:18.030Z,15.85
2022-12-18T20:23:45.106Z,16.52
2022-12-18T20:26:11.975Z,17.40
2022-12-18T20:28:40.752Z,18.27
2022-12-18T20:31:08.389Z,16.90
2022-12-18T20:33:37.296Z,15.90
2022-12-18T20:36:06.796Z,16.08
2022-12-18T20:38:35.183Z,16.73
2022-12-18T20:41:07.281Z,15.60
2022-12-18T20:43:34.329Z,12.40
2022-12-18T20:46:03.857Z,17.17
2022-12-18T20:48:31.178Z,17.58
2022-12-18T20:50:58.467Z,17.10
2022-12-18T20:53:27.943Z,15.63
2022-12-18T20:55:54.889Z,16.65
2022-12-18T20:58:21.483Z,18.02
2022-12-18T21:00:48.105Z,16.90
2022-12-18T21:03:16.512Z,16.58
2022-12-18T21:05:43.320Z,17.27
2022-12-18T21:08:09.973Z,16.17
2022-12-18T21:10:39.318Z,16.90
2022-12-18T21:13:08.682Z,16.50
2022-12-18T21:15:35.285Z,16.80
2022-12-18T21:18:01.838Z,16.67
2022-12-18T21:20:29.764Z,17.25
2022-12-18T21:22:57.688Z,17.17
2022-12-18T21:25:35.550Z,16.65
2022-12-18T21:28:02.047Z,16.00
2022-12-18T21:30:28.988Z,16.05
2022-12-18T21:32:55.668Z,15.52
2022-12-18T21:35:22.261Z,16.90
2022-12-18T21:37:52.373Z,16.95
2022-12-18T21:40:19.013Z,16.58
2022-12-18T21:42:45.527Z,18.33
2022-12-18T21:45:12.055Z,16.95
2022-12-18T21:47:38.632Z,16.63
2022-12-18T21:50:06.137Z,16.63
2022-12-18T21:52:32.995Z,17.35
2022-12-18T21:55:06.650Z,16.65
2022-12-18T21:57:34.896Z,17.23
2022-12-18T22:00:01.565Z,16.83
2022-12-18T22:02:39.255Z,17.30
2022-12-18T22:05:06.853Z,16.55
2022-12-18T22:07:33.744Z,15.15
2022-12-18T22:10:02.030Z,17.45
2022-12-18T22:12:28.902Z,15.23
2022-12-18T22:14:55.498Z,16.95
2022-12-18T22:17:21.996Z,17.38
2022-12-18T22:19:49.383Z,17.52
2022-12-18T22:22:15.902Z,17.05
2022-12-18T22:24:42.480Z,17.45
2022-12-18T22:27:10.446Z,18.73
2022-12-18T22:29:37.022Z,18.40
2022-12-18T22:32:04.474Z,18.27
2022-12-18T22:34:36.309Z,16.85
2022-12-18T22:37:03.556Z,17.38
2022-12-18T22:39:30.552Z,16.58
2022-12-18T22:41:57.835Z,17.10
2022-12-18T22:44:26.197Z,17.50
2022-12-18T22:47:05.478Z,17.90
2022-12-18T22:49:35.683Z,17.50
2022-12-18T22:52:02.731Z,16.13
2022-12-18T22:54:29.551Z,17.65
2022-12-18T22:56:56.609Z,16.33
2022-12-18T22:59:23.703Z,16.65
2022-12-18T23:01:58.407Z,16.90
2022-12-18T23:04:26.050Z,18.02
2022-12-18T23:06:54.633Z,16.83
2022-12-18T23:09:21.310Z,17.85
2022-12-18T23:11:48.246Z,16.35
2022-12-18T23:14:15.446Z,17.08
2022-12-18T23:16:43.169Z,16.20
2022-12-18T23:19:14.612Z,18.83
2022-12-18T23:21:41.217Z,17.40
2022-12-18T23:24:08.414Z,16.98
2022-12-18T23:26:35.074Z,17.17
2022-12-18T23:29:02.513Z,18.30
2022-12-18T23:31:30.888Z,16.52
2022-12-18T23:33:59.355Z,16.83
2022-12-18T23:36:27.545Z,16.42
2022-12-18T23:38:57.493Z,18.90
2022-12-18T23:41:26.387Z,16.10
2022-12-18T23:43:54.045Z,16.08
2022-12-18T23:46:22.432Z,16.70
2022-12-18T23:48:49.642Z,17.55
2022-12-18T23:51:18.344Z,18.30
2022-12-18T23:53:46.499Z,18.00
2022-12-18T23:56:13.643Z,17.92
2022-12-18T23:58:40.495Z,16.73
